createdAt,value
2019-01-04T00:01:22.801Z,12.87
2019-01-04T00:06:17.383Z,8.70
2019-01-04T00:11:12.003Z,10.70
2019-01-04T00:16:06.602Z,7.87
2019-01-04T00:21:01.319Z,8.37
2019-01-04T00:25:55.895Z,9.40
2019-01-04T00:30:50.501Z,9.53
2019-01-04T00:35:45.184Z,8.53
2019-01-04T00:40:39.815Z,8.67
2019-01-04T00:45:34.491Z,9.47
2019-01-04T00:50:29.160Z,13.20
2019-01-04T00:55:47.485Z,10.63
2019-01-04T01:00:58.374Z,10.37
2019-01-04T01:06:09.329Z,9.03
2019-01-04T01:11:46.015Z,9.83
2019-01-04T01:17:05.761Z,7.33
2019-01-04T01:22:13.426Z,8.53
2019-01-04T01:27:40.111Z,13.83
2019-01-04T01:32:59.735Z,8.57
2019-01-04T01:38:33.338Z,11.90
2019-01-04T01:43:57.472Z,10.93
2019-01-04T01:48:59.264Z,9.13
2019-01-04T01:53:53.908Z,10.97
2019-01-04T01:58:48.486Z,7.77
2019-01-04T02:03:43.180Z,8.27
2019-01-04T02:08:37.762Z,11.17
2019-01-04T02:13:32.460Z,10.43
2019-01-04T02:18:27.070Z,10.97
2019-01-04T02:23:21.648Z,10.00
2019-01-04T02:28:16.255Z,10.03
2019-01-04T02:33:10.849Z,11.30
2019-01-04T02:38:05.468Z,9.50
2019-01-04T02:43:00.047Z,8.17
2019-01-04T02:47:54.658Z,9.73
2019-01-04T02:52:49.270Z,10.07
2019-01-04T02:57:43.838Z,11.00
2019-01-04T03:02:38.448Z,8.73
2019-01-04T03:07:33.088Z,12.50
2019-01-04T03:12:27.739Z,8.97
2019-01-04T03:17:22.337Z,9.07
2019-01-04T03:22:16.966Z,10.00
2019-01-04T03:27:11.571Z,15.73
2019-01-04T03:32:06.187Z,10.03
2019-01-04T03:37:00.761Z,9.37
2019-01-04T03:41:55.369Z,8.13
2019-01-04T03:46:49.944Z,9.13
2019-01-04T03:51:44.693Z,13.03
2019-01-04T03:56:39.298Z,9.67
2019-01-04T04:01:33.921Z,10.97
2019-01-04T04:06:28.496Z,9.87
2019-01-04T04:11:23.122Z,10.13
2019-01-04T04:16:17.733Z,10.13
2019-01-04T04:21:12.336Z,10.07
2019-01-04T04:26:06.934Z,10.07
2019-01-04T04:31:01.557Z,12.70
2019-01-04T04:35:56.158Z,12.73
2019-01-04T04:40:50.778Z,12.87
2019-01-04T04:45:45.361Z,12.13
2019-01-04T04:50:39.962Z,16.67
2019-01-04T04:55:34.600Z,13.70
2019-01-04T05:00:29.244Z,13.87
2019-01-04T05:05:23.822Z,14.00
2019-01-04T05:10:18.456Z,14.20
2019-01-04T05:15:13.053Z,10.10
2019-01-04T05:20:07.732Z,12.17
2019-01-04T05:25:02.331Z,14.77
2019-01-04T05:29:56.909Z,10.90
2019-01-04T05:34:51.520Z,12.43
2019-01-04T05:39:46.121Z,14.20
2019-01-04T05:44:40.725Z,12.83
2019-01-04T05:49:35.334Z,11.77
2019-01-04T05:54:29.939Z,15.63
2019-01-04T05:59:24.543Z,14.07
2019-01-04T06:04:19.154Z,10.57
2019-01-04T06:09:13.739Z,16.23
2019-01-04T06:14:08.360Z,12.07
2019-01-04T06:19:02.947Z,12.20
2019-01-04T06:23:57.579Z,13.40
2019-01-04T06:28:52.189Z,13.43
2019-01-04T06:33:46.784Z,12.90
2019-01-04T06:38:41.381Z,12.17
2019-01-04T06:43:35.981Z,11.57
2019-01-04T06:48:30.591Z,16.00
2019-01-04T06:53:25.269Z,16.53
2019-01-04T06:58:20.005Z,13.43
2019-01-04T07:03:14.610Z,14.07
2019-01-04T07:08:09.254Z,16.30
2019-01-04T07:13:04.158Z,17.57
2019-01-04T07:17:58.882Z,18.20
2019-01-04T07:22:53.546Z,13.10
2019-01-04T07:27:48.158Z,23.43
2019-01-04T07:32:42.751Z,17.13
2019-01-04T07:37:37.445Z,14.50
2019-01-04T07:42:32.065Z,18.47
2019-01-04T07:47:26.686Z,20.90
2019-01-04T07:52:21.281Z,17.60
2019-01-04T07:57:15.979Z,18.07
2019-01-04T08:02:36.981Z,19.33
2019-01-04T08:07:31.614Z,16.00
2019-01-04T08:12:28.220Z,15.13
2019-01-04T08:17:23.137Z,19.40
2019-01-04T08:22:18.914Z,15.97
2019-01-04T08:27:13.720Z,20.20
2019-01-04T08:32:08.586Z,17.43
2019-01-04T08:37:03.204Z,18.50
2019-01-04T08:41:57.804Z,18.67
2019-01-04T08:47:02.389Z,18.17
2019-01-04T08:51:57.064Z,17.37
2019-01-04T08:56:51.951Z,18.40
2019-01-04T09:01:46.569Z,17.23
2019-01-04T09:06:41.162Z,18.80
2019-01-04T09:11:35.822Z,19.30
2019-01-04T09:16:30.420Z,19.40
2019-01-04T09:21:26.247Z,20.23
2019-01-04T09:26:21.089Z,17.40
2019-01-04T09:31:15.733Z,18.63
2019-01-04T09:36:11.349Z,22.57
2019-01-04T09:41:42.184Z,17.20
2019-01-04T09:46:37.244Z,21.03
2019-01-04T09:51:31.803Z,21.03
2019-01-04T09:56:27.660Z,19.07
2019-01-04T10:01:23.848Z,16.20
2019-01-04T10:06:18.811Z,16.23
2019-01-04T10:11:13.430Z,17.57
2019-01-04T10:16:08.013Z,15.97
2019-01-04T10:21:02.641Z,14.00
2019-01-04T10:25:57.291Z,14.97
2019-01-04T10:30:51.926Z,15.43
2019-01-04T10:35:47.874Z,16.83
2019-01-04T10:40:42.720Z,15.43
2019-01-04T10:45:37.479Z,14.87
2019-01-04T10:50:32.092Z,13.00
2019-01-04T10:55:26.697Z,17.83
2019-01-04T11:00:21.554Z,15.53
2019-01-04T11:05:16.190Z,16.00
2019-01-04T11:10:15.457Z,13.50
2019-01-04T11:15:10.065Z,12.13
2019-01-04T11:20:07.740Z,15.03
2019-01-04T11:25:50.652Z,9.37
2019-01-04T11:30:49.942Z,13.40
2019-01-04T11:35:58.013Z,10.53
2019-01-04T11:41:06.171Z,10.33
2019-01-04T11:46:23.091Z,11.87
2019-01-04T11:51:36.991Z,15.67
2019-01-04T11:56:31.759Z,9.33
2019-01-04T12:01:26.377Z,12.20
2019-01-04T12:06:21.007Z,10.67
2019-01-04T12:11:15.652Z,9.83
2019-01-04T12:16:10.337Z,8.43
2019-01-04T12:21:08.604Z,10.53
2019-01-04T12:26:03.276Z,7.47
2019-01-04T12:30:57.881Z,6.80
2019-01-04T12:35:52.465Z,9.30
2019-01-04T12:40:47.293Z,9.17
2019-01-04T12:45:42.829Z,8.50
2019-01-04T12:50:37.964Z,6.13
2019-01-04T12:55:32.696Z,7.20
2019-01-04T13:00:27.379Z,7.30
2019-01-04T13:05:22.592Z,7.33
2019-01-04T13:10:17.398Z,6.63
2019-01-04T13:15:11.988Z,7.20
2019-01-04T13:20:06.835Z,5.20
2019-01-04T13:25:01.441Z,9.67
2019-01-04T13:29:56.111Z,7.13
2019-01-04T13:34:50.833Z,9.03
2019-01-04T13:39:45.471Z,8.53
2019-01-04T13:44:40.152Z,9.67
2019-01-04T13:49:34.740Z,10.87
2019-01-04T13:54:29.349Z,9.00
2019-01-04T13:59:23.929Z,11.17
2019-01-04T14:04:18.525Z,8.67
2019-01-04T14:09:13.139Z,9.83
2019-01-04T14:14:07.756Z,7.53
2019-01-04T14:19:02.429Z,7.17
2019-01-04T14:23:57.166Z,8.27
2019-01-04T14:28:52.237Z,8.43
2019-01-04T14:33:47.717Z,10.50
2019-01-04T14:38:43.149Z,11.60
2019-01-04T14:43:37.755Z,9.33
2019-01-04T14:48:32.778Z,13.20
2019-01-04T14:53:27.600Z,11.53
2019-01-04T14:58:22.241Z,15.13
2019-01-04T15:03:20.726Z,12.57
2019-01-04T15:08:21.831Z,10.80
2019-01-04T15:13:16.906Z,10.37
2019-01-04T15:18:12.296Z,13.97
2019-01-04T15:23:07.839Z,12.90
2019-01-04T15:28:02.664Z,14.63
2019-01-04T15:32:57.270Z,11.07
2019-01-04T15:37:51.894Z,12.37
2019-01-04T15:42:46.486Z,15.03
2019-01-04T15:47:41.097Z,13.87
2019-01-04T15:52:35.702Z,13.63
2019-01-04T15:57:30.309Z,15.53
2019-01-04T16:02:24.894Z,13.97
2019-01-04T16:07:19.537Z,17.07
2019-01-04T16:12:14.108Z,16.13
2019-01-04T16:17:12.091Z,15.43
2019-01-04T16:22:05.038Z,12.00
2019-01-04T16:26:59.692Z,14.73
2019-01-04T16:31:54.337Z,14.10
2019-01-04T16:36:48.971Z,14.53
2019-01-04T16:41:43.671Z,14.90
2019-01-04T16:46:38.258Z,15.23
2019-01-04T16:51:32.874Z,17.80
2019-01-04T16:56:27.491Z,16.87
2019-01-04T17:01:22.155Z,16.00
2019-01-04T17:06:16.797Z,14.33
2019-01-04T17:11:11.430Z,14.60
2019-01-04T17:16:06.155Z,15.77
2019-01-04T17:21:00.772Z,13.37
2019-01-04T17:25:55.461Z,14.97
2019-01-04T17:30:50.066Z,15.57
2019-01-04T17:35:44.670Z,17.83
2019-01-04T17:40:39.361Z,19.67
2019-01-04T17:45:33.949Z,16.67
2019-01-04T17:50:28.566Z,18.63
2019-01-04T17:55:23.173Z,13.73
2019-01-04T18:00:17.853Z,18.23
2019-01-04T18:05:12.545Z,16.27
2019-01-04T18:10:09.387Z,18.23
2019-01-04T18:15:04.391Z,18.33
2019-01-04T18:19:59.064Z,17.90
2019-01-04T18:24:53.689Z,16.10
2019-01-04T18:29:48.310Z,18.70
2019-01-04T18:34:42.987Z,15.93
2019-01-04T18:39:37.635Z,17.97
2019-01-04T18:44:32.241Z,16.90
2019-01-04T18:49:26.858Z,17.37
2019-01-04T18:54:21.551Z,16.30
2019-01-04T18:59:16.168Z,15.20
2019-01-04T19:04:10.767Z,15.57
2019-01-04T19:09:07.902Z,17.13
2019-01-04T19:14:02.491Z,16.07
2019-01-04T19:18:57.107Z,15.13
2019-01-04T19:23:51.702Z,16.47
2019-01-04T19:28:46.336Z,11.70
2019-01-04T19:33:40.942Z,13.17
2019-01-04T19:38:35.537Z,15.33
2019-01-04T19:43:30.172Z,11.70
2019-01-04T19:48:24.771Z,12.63
2019-01-04T19:53:19.370Z,12.80
2019-01-04T19:58:13.977Z,14.03
2019-01-04T20:03:08.582Z,12.30
2019-01-04T20:08:42.477Z,10.13
2019-01-04T20:14:26.640Z,11.20
2019-01-04T20:19:32.874Z,11.23
2019-01-04T20:24:44.682Z,13.50
2019-01-04T20:29:40.934Z,12.83
2019-01-04T20:34:42.962Z,13.67
2019-01-04T20:39:41.898Z,12.70
2019-01-04T20:44:46.700Z,13.53
2019-01-04T20:49:51.655Z,16.47
2019-01-04T20:54:59.423Z,13.27
2019-01-04T20:59:59.225Z,16.07
2019-01-04T21:05:11.353Z,15.40
2019-01-04T21:10:14.061Z,15.50
2019-01-04T21:15:22.247Z,16.33
2019-01-04T21:20:16.613Z,16.17
2019-01-04T21:25:12.864Z,14.03
2019-01-04T21:30:25.157Z,14.23
2019-01-04T21:35:22.178Z,17.07
2019-01-04T21:40:25.238Z,18.07
2019-01-04T21:45:21.496Z,13.47
2019-01-04T21:50:17.733Z,13.57
2019-01-04T21:55:13.980Z,14.87
2019-01-04T22:00:11.547Z,15.53
2019-01-04T22:05:16.899Z,16.37
2019-01-04T22:10:15.651Z,18.07
2019-01-04T22:15:18.728Z,19.37
2019-01-04T22:20:30.530Z,19.77
2019-01-04T22:25:38.656Z,17.03
2019-01-04T22:30:37.627Z,18.80
2019-01-04T22:35:42.666Z,16.00
2019-01-04T22:40:50.855Z,18.47
2019-01-04T22:46:03.334Z,18.43
2019-01-04T22:51:15.269Z,15.97
2019-01-04T22:56:27.384Z,17.17
2019-01-04T23:01:26.748Z,17.23
2019-01-04T23:06:26.066Z,17.07
2019-01-04T23:11:39.847Z,19.40
2019-01-04T23:16:53.743Z,21.03
2019-01-04T23:22:12.522Z,23.80
2019-01-04T23:27:12.698Z,21.57
2019-01-04T23:32:08.993Z,20.73
2019-01-04T23:37:14.375Z,20.43
2019-01-04T23:42:19.365Z,23.30
2019-01-04T23:47:17.056Z,25.00
2019-01-04T23:52:13.374Z,26.40
2019-01-04T23:57:21.545Z,27.07
